createdAt,value
2024-01-29T00:02:13.860Z,24.1
2024-01-29T00:08:13.399Z,24.6
2024-01-29T00:14:10.110Z,25.9
2024-01-29T00:20:05.049Z,26.5
2024-01-29T00:25:59.354Z,25.8
2024-01-29T00:31:38.885Z,24.9
2024-01-29T00:37:38.673Z,24.6
2024-01-29T00:43:33.407Z,25.6
2024-01-29T00:49:12.800Z,26.5
2024-01-29T00:55:14.729Z,26.4
2024-01-29T01:01:09.701Z,24.9
2024-01-29T01:07:11.402Z,24.5
2024-01-29T01:13:04.907Z,24.9
2024-01-29T01:18:44.423Z,26.3
2024-01-29T01:24:39.291Z,26.5
2024-01-29T01:30:33.525Z,25.3
2024-01-29T01:36:28.787Z,24.8
2024-01-29T01:42:25.613Z,24.6
2024-01-29T01:48:27.813Z,25.2
2024-01-29T01:54:22.461Z,25.2
2024-01-29T02:00:19.554Z,26.4
2024-01-29T02:06:15.881Z,26.6
2024-01-29T02:12:10.626Z,25.3
2024-01-29T02:18:04.776Z,24.8
2024-01-29T02:23:59.647Z,24.6
2024-01-29T02:29:54.311Z,26.1
2024-01-29T02:35:51.328Z,26.4
2024-01-29T02:41:45.516Z,25.3
2024-01-29T02:47:24.518Z,26
2024-01-29T02:53:20.170Z,26.5
2024-01-29T02:59:14.228Z,25.7
2024-01-29T03:05:09.941Z,24.8
2024-01-29T03:11:08.596Z,24.6
2024-01-29T03:16:49.124Z,25.6
2024-01-29T03:22:44.820Z,26.4
2024-01-29T03:28:42.134Z,26.3
2024-01-29T03:34:36.523Z,25.3
2024-01-29T03:40:15.483Z,26.5
2024-01-29T03:46:09.605Z,26.5
2024-01-29T03:52:04.530Z,25.3
2024-01-29T03:58:01.871Z,26.2
2024-01-29T04:03:59.203Z,26.6
2024-01-29T04:09:39.628Z,25.6
2024-01-29T04:15:33.519Z,25.7
2024-01-29T04:21:33.971Z,25.5
2024-01-29T04:27:31.234Z,25.3
2024-01-29T04:33:10.472Z,26.4
2024-01-29T04:39:05.555Z,26.6
2024-01-29T04:45:00.702Z,25.5
2024-01-29T04:50:41.852Z,26
2024-01-29T04:56:20.985Z,26.7
2024-01-29T05:01:44.523Z,26.4
2024-01-29T05:07:28.058Z,25.1
2024-01-29T05:13:08.069Z,24.5
2024-01-29T05:18:31.889Z,25
2024-01-29T05:24:14.337Z,26.3
2024-01-29T05:30:08.629Z,26.6
2024-01-29T05:35:57.874Z,25.6
2024-01-29T05:41:20.737Z,25.7
2024-01-29T05:47:15.082Z,26.6
2024-01-29T05:52:54.552Z,26.5
2024-01-29T05:58:48.950Z,25.3
2024-01-29T06:04:28.456Z,26.4
2024-01-29T06:10:10.623Z,26.7
2024-01-29T06:15:51.740Z,25.7
2024-01-29T06:21:57.440Z,25.9
2024-01-29T06:27:38.824Z,26.7
2024-01-29T06:33:34.182Z,26.5
2024-01-29T06:39:31.229Z,25.4
2024-01-29T06:45:27.654Z,26.1
2024-01-29T06:51:22.727Z,25.8
2024-01-29T06:57:17.743Z,26.2
2024-01-29T07:03:13.608Z,26.8
2024-01-29T07:09:12.712Z,26.1
2024-01-29T07:15:07.265Z,24.9
2024-01-29T07:21:03.593Z,24.7
2024-01-29T07:26:42.410Z,25.8
2024-01-29T07:32:38.624Z,26.6
2024-01-29T07:38:34.550Z,26.4
2024-01-29T07:44:31.576Z,25.3
2024-01-29T07:50:26.571Z,26.6
2024-01-29T07:56:22.850Z,26.6
2024-01-29T08:02:19.868Z,25.4
2024-01-29T08:08:15.547Z,26.3
2024-01-29T08:14:10.621Z,26.8
2024-01-29T08:20:11.471Z,25.8
2024-01-29T08:26:06.984Z,25.8
2024-01-29T08:32:02.618Z,26.7
2024-01-29T08:37:58.920Z,26.5
2024-01-29T08:43:53.514Z,25.4
2024-01-29T08:49:50.768Z,26.6
2024-01-29T08:55:50.929Z,26.7
2024-01-29T09:01:46.615Z,25.5
2024-01-29T09:07:41.680Z,26.4
2024-01-29T09:13:48.012Z,26.7
2024-01-29T09:19:28.850Z,25.4
2024-01-29T09:25:23.295Z,26.2
2024-01-29T09:31:21.973Z,26.8
2024-01-29T09:37:27.930Z,25.9
2024-01-29T09:43:24.777Z,25.7
2024-01-29T09:49:06.910Z,26.8
2024-01-29T09:54:49.290Z,26.4
2024-01-29T10:00:45.220Z,25.4
2024-01-29T10:06:42.255Z,26.6
2024-01-29T10:12:21.340Z,26.6
2024-01-29T10:18:15.379Z,25.5
2024-01-29T10:24:11.416Z,26.1
2024-01-29T10:29:52.307Z,26.6
2024-01-29T10:35:17.505Z,25.8
2024-01-29T10:40:34.296Z,25.8
2024-01-29T10:46:28.632Z,26.7
2024-01-29T10:52:08.131Z,26.5
2024-01-29T10:57:49.120Z,25.6
2024-01-29T11:03:39.908Z,26.3
2024-01-29T11:09:21.127Z,25.8
2024-01-29T11:15:01.616Z,26.2
2024-01-29T11:20:43.008Z,26.9
2024-01-29T11:26:44.834Z,26.4
2024-01-29T11:32:27.335Z,25.1
2024-01-29T11:38:34.845Z,24.5
2024-01-29T11:44:31.967Z,23.9
2024-01-29T11:50:29.809Z,24.4
2024-01-29T11:56:22.573Z,25.7
2024-01-29T12:02:18.553Z,25.9
2024-01-29T12:08:02.097Z,24.7
2024-01-29T12:13:56.536Z,24.2
2024-01-29T12:19:53.047Z,24.3
2024-01-29T12:25:50.618Z,25.7
2024-01-29T12:31:45.401Z,25.8
2024-01-29T12:37:27.422Z,24.5
2024-01-29T12:43:24.852Z,24.1
2024-01-29T12:49:20.032Z,24.3
2024-01-29T12:55:15.178Z,25.6
2024-01-29T13:00:39.593Z,25.6
2024-01-29T13:06:41.702Z,24.6
2024-01-29T13:12:39.846Z,25.7
2024-01-29T13:18:35.205Z,25.7
2024-01-29T13:24:14.625Z,24.8
2024-01-29T13:30:11.626Z,25.8
2024-01-29T13:35:54.628Z,25.6
2024-01-29T13:41:51.968Z,24.8
2024-01-29T13:47:49.645Z,25.8
2024-01-29T13:53:45.034Z,25.2
2024-01-29T13:59:41.492Z,25.2
2024-01-29T14:05:37.799Z,25.9
2024-01-29T14:11:34.089Z,25.6
2024-01-29T14:17:43.467Z,25.2
2024-01-29T14:23:40.723Z,24.7
2024-01-29T14:29:35.768Z,24.3
2024-01-29T14:35:35.442Z,23.9
2024-01-29T14:41:33.538Z,23.4
2024-01-29T14:47:31.498Z,23
2024-01-29T14:53:27.623Z,22.7
2024-01-29T14:59:24.245Z,23.4
2024-01-29T15:05:20.581Z,25.4
2024-01-29T15:11:17.993Z,26.8
2024-01-29T15:17:14.773Z,27.7
2024-01-29T15:23:13.044Z,28.3
2024-01-29T15:29:08.852Z,29.1
2024-01-29T15:35:03.882Z,29.6
2024-01-29T15:41:00.420Z,29.7
2024-01-29T15:47:00.265Z,29.3
2024-01-29T15:52:58.667Z,29.3
2024-01-29T15:58:52.309Z,29.3
2024-01-29T16:04:47.638Z,29.1
2024-01-29T16:10:42.440Z,29.5
2024-01-29T16:16:40.501Z,29.3
2024-01-29T16:22:36.148Z,29.1
2024-01-29T16:28:30.960Z,28.8
2024-01-29T16:34:27.286Z,28.5
2024-01-29T16:40:25.984Z,28.1
2024-01-29T16:46:19.903Z,28
2024-01-29T16:52:16.354Z,28.9
2024-01-29T16:58:11.562Z,28.8
2024-01-29T17:04:07.894Z,28.3
2024-01-29T17:10:04.840Z,28.1
2024-01-29T17:16:01.221Z,27.8
2024-01-29T17:22:00.916Z,27.5
2024-01-29T17:27:54.992Z,27.3
2024-01-29T17:33:51.113Z,27
2024-01-29T17:39:46.215Z,27.1
2024-01-29T17:45:42.338Z,27.7
2024-01-29T17:51:38.255Z,28.6
2024-01-29T17:57:35.347Z,28.4
2024-01-29T18:03:31.023Z,28.9
2024-01-29T18:09:10.540Z,28.6
2024-01-29T18:14:48.658Z,28.3
2024-01-29T18:20:31.743Z,28.1
2024-01-29T18:26:13.245Z,28.1
2024-01-29T18:32:07.220Z,27.9
2024-01-29T18:38:02.310Z,27.9
2024-01-29T18:43:56.702Z,27.9
2024-01-29T18:49:54.826Z,29.1
2024-01-29T18:55:49.818Z,29.3
2024-01-29T19:01:44.683Z,29.6
2024-01-29T19:07:45.541Z,29.6
2024-01-29T19:13:45.032Z,29.8
2024-01-29T19:19:40.637Z,30.2
2024-01-29T19:25:19.404Z,29.9
2024-01-29T19:30:58.843Z,30.2
2024-01-29T19:36:38.656Z,29.9
2024-01-29T19:42:34.041Z,29.5
2024-01-29T19:48:28.592Z,29.7
2024-01-29T19:54:26.138Z,29.4
2024-01-29T20:00:21.200Z,29.8
2024-01-29T20:06:16.812Z,29.3
2024-01-29T20:12:13.150Z,28.8
2024-01-29T20:18:08.267Z,28.3
2024-01-29T20:24:04.531Z,28
2024-01-29T20:30:00.265Z,27.6
2024-01-29T20:35:56.680Z,27.2
2024-01-29T20:42:10.807Z,26.9
2024-01-29T20:47:51.010Z,26.6
2024-01-29T20:53:47.158Z,26.4
2024-01-29T20:59:53.092Z,26.2
2024-01-29T21:05:49.996Z,26
2024-01-29T21:11:32.575Z,25.8
2024-01-29T21:17:26.899Z,25.6
2024-01-29T21:23:22.130Z,25.2
2024-01-29T21:29:16.306Z,24.6
2024-01-29T21:35:14.072Z,24
2024-01-29T21:40:52.239Z,23.5
2024-01-29T21:46:46.528Z,23
2024-01-29T21:52:42.340Z,22.8
2024-01-29T21:58:36.842Z,22.4
2024-01-29T22:04:34.408Z,23.9
2024-01-29T22:10:14.068Z,24.6
2024-01-29T22:15:52.836Z,25.6
2024-01-29T22:21:33.212Z,26.5
2024-01-29T22:27:29.099Z,26.4
2024-01-29T22:33:24.985Z,25.1
2024-01-29T22:39:04.462Z,24.7
2024-01-29T22:44:58.953Z,24.8
2024-01-29T22:50:38.296Z,26.2
2024-01-29T22:56:34.818Z,26.6
2024-01-29T23:02:15.778Z,25.7
2024-01-29T23:08:11.463Z,24.8
2024-01-29T23:14:05.466Z,24.6
2024-01-29T23:19:44.233Z,25.4
2024-01-29T23:25:42.020Z,26.4
2024-01-29T23:31:36.239Z,26.4
2024-01-29T23:37:31.206Z,25.1
2024-01-29T23:43:24.693Z,24.6
2024-01-29T23:49:03.308Z,24.6
2024-01-29T23:54:42.492Z,25.9
